Time;durP1;ratioP1;P1;durP2;ratioP2;P2;SDS_P1;SDS_P2;PMS_P1;PMS_P2;Temp;Humidity;BMP_temperature;BMP_pressure;BME280_temperature;BME280_humidity;BME280_pressure;Samples;Min_cycle;Max_cycle;Signal;HPM_P1;HPM_P2
2022/06/15 00:01:27;;;;;;;2.70;2.23;;;-10.40;99.90;;;;;;5138291;27;20174;-65
2022/06/15 00:03:53;;;;;;;2.57;2.20;;;-9.20;99.90;;;;;;5138132;27;20169;-65
2022/06/15 00:06:28;;;;;;;3.60;3.27;;;-9.30;99.90;;;;;;5138173;27;20200;-67
2022/06/15 00:08:56;;;;;;;3.70;2.77;;;-10.70;99.90;;;;;;5138040;27;20599;-67
2022/06/15 00:11:26;;;;;;;4.20;2.77;;;-7.70;99.90;;;;;;5138093;27;20196;-65
2022/06/15 00:13:54;;;;;;;5.77;3.37;;;-10.00;99.90;;;;;;5136729;27;20165;-65
2022/06/15 00:16:21;;;;;;;8.70;4.10;;;-10.50;99.90;;;;;;5137768;27;20220;-68
2022/06/15 00:18:47;;;;;;;3.77;2.50;;;-9.70;99.90;;;;;;5137839;27;20169;-66
2022/06/15 00:21:16;;;;;;;6.93;3.03;;;-10.40;99.90;;;;;;5137850;27;20205;-67
2022/06/15 00:23:43;;;;;;;5.83;2.83;;;-9.80;99.90;;;;;;5137702;27;20173;-67
2022/06/15 00:26:09;;;;;;;2.97;2.70;;;-9.30;99.90;;;;;;5137700;27;20170;-68
2022/06/15 00:28:36;;;;;;;4.83;3.10;;;-9.60;99.90;;;;;;5137658;27;20196;-67
2022/06/15 00:31:02;;;;;;;5.57;3.30;;;-10.10;99.90;;;;;;5137761;27;20187;-64
2022/06/15 00:33:29;;;;;;;4.03;2.47;;;-10.40;99.90;;;;;;5137585;27;20172;-65
2022/06/15 00:36:10;;;;;;;4.73;2.63;;;-11.70;99.90;;;;;;5136237;27;20208;-67
2022/06/15 00:38:42;;;;;;;9.20;2.73;;;-9.80;99.90;;;;;;5137395;27;20181;-65
2022/06/15 00:41:15;;;;;;;3.73;2.47;;;-11.40;99.90;;;;;;5137259;27;20168;-64
2022/06/15 00:43:56;;;;;;;4.63;2.83;;;-13.50;99.90;;;;;;5137414;27;20173;-69
2022/06/15 00:46:39;;;;;;;4.53;2.10;;;-9.80;99.90;;;;;;5136406;27;20265;-67
2022/06/15 00:49:25;;;;;;;4.23;1.90;;;-11.60;99.90;;;;;;5137209;27;20177;-64
2022/06/15 00:51:56;;;;;;;3.67;1.70;;;-12.60;99.90;;;;;;5129880;27;20543;-67
2022/06/15 00:54:23;;;;;;;6.03;2.67;;;-12.10;99.90;;;;;;5137187;27;20173;-67
2022/06/15 00:56:50;;;;;;;7.50;3.00;;;-9.20;99.90;;;;;;5135858;27;20205;-67
2022/06/15 00:59:23;;;;;;;3.17;2.67;;;-9.10;99.90;;;;;;5137018;27;20191;-68
2022/06/15 01:01:48;;;;;;;4.83;2.47;;;-9.30;99.90;;;;;;5137060;27;20172;-67
2022/06/15 01:04:16;;;;;;;6.13;2.47;;;-10.40;99.90;;;;;;5137077;27;20165;-68
2022/06/15 01:06:48;;;;;;;4.30;2.13;;;-11.10;99.90;;;;;;5137290;27;20513;-65
2022/06/15 01:09:17;;;;;;;2.67;1.87;;;-10.20;99.90;;;;;;5137020;27;20182;-66
2022/06/15 01:12:01;;;;;;;4.73;2.50;;;-13.10;99.90;;;;;;5136663;27;20169;-66
2022/06/15 01:14:36;;;;;;;5.27;4.17;;;-10.30;99.90;;;;;;5136882;27;20248;-67
2022/06/15 01:17:26;;;;;;;3.43;2.03;;;-11.10;99.90;;;;;;5136951;27;20663;-70
2022/06/15 01:20:02;;;;;;;5.17;2.60;;;-10.40;99.90;;;;;;5136782;27;20169;-69
2022/06/15 01:23:06;;;;;;;3.40;2.60;;;-9.90;99.90;;;;;;5136792;27;20583;-72
2022/06/15 01:25:47;;;;;;;2.17;1.80;;;-10.90;99.90;;;;;;5101328;27;20314;-67
2022/06/15 01:28:46;;;;;;;5.93;2.37;;;-7.80;99.90;;;;;;5136861;27;20192;-72
2022/06/15 01:31:17;;;;;;;3.40;2.47;;;-12.00;99.90;;;;;;5136867;27;20570;-71
2022/06/15 01:33:43;;;;;;;5.80;2.50;;;-12.80;99.90;;;;;;5135731;27;20273;-71
2022/06/15 01:36:31;;;;;;;2.70;2.50;;;-11.80;99.90;;;;;;5136639;27;20287;-71
2022/06/15 01:39:04;;;;;;;4.43;2.73;;;-12.30;99.90;;;;;;5136709;27;20622;-72
2022/06/15 01:41:35;;;;;;;4.93;2.47;;;-12.10;99.90;;;;;;5136617;27;20192;-72
2022/06/15 01:44:34;;;;;;;3.57;1.80;;;-14.20;99.90;;;;;;5136825;27;20466;-71
2022/06/15 01:47:06;;;;;;;2.50;2.23;;;-12.70;99.90;;;;;;5136554;27;20560;-67
2022/06/15 01:49:58;;;;;;;3.43;2.60;;;-14.20;99.90;;;;;;5136612;27;20169;-65
2022/06/15 01:52:27;;;;;;;5.13;2.50;;;-13.00;99.90;;;;;;5136426;27;20165;-64
2022/06/15 01:55:06;;;;;;;4.63;2.73;;;-12.70;99.90;;;;;;5136416;27;20176;-66
2022/06/15 01:57:36;;;;;;;3.50;2.20;;;-11.20;99.90;;;;;;5136381;27;20504;-70
2022/06/15 02:00:10;;;;;;;2.50;2.30;;;-11.50;99.90;;;;;;5136555;27;20158;-65
2022/06/15 02:02:45;;;;;;;2.77;2.37;;;-11.50;99.90;;;;;;5136200;27;20616;-72
2022/06/15 02:05:23;;;;;;;2.97;2.63;;;-11.20;99.90;;;;;;5136135;27;20169;-72
2022/06/15 02:08:07;;;;;;;4.50;2.33;;;-13.90;99.90;;;;;;5134896;27;20193;-69
2022/06/15 02:10:45;;;;;;;5.10;2.97;;;-12.90;99.90;;;;;;5136254;27;20165;-65
2022/06/15 02:13:23;;;;;;;4.27;2.43;;;-11.60;99.90;;;;;;5136423;27;20169;-66
2022/06/15 02:16:04;;;;;;;4.57;2.00;;;-11.40;99.90;;;;;;5136242;27;20192;-73
2022/06/15 02:18:35;;;;;;;3.10;2.43;;;-10.70;99.90;;;;;;5136321;27;20252;-73
2022/06/15 02:21:07;;;;;;;3.73;2.40;;;-10.80;99.90;;;;;;5136488;27;20466;-70
2022/06/15 02:23:34;;;;;;;4.90;2.97;;;-10.60;99.90;;;;;;5136047;27;20166;-72
2022/06/15 02:26:02;;;;;;;6.43;3.87;;;-11.10;99.90;;;;;;5136249;27;20565;-69
2022/06/15 02:28:36;;;;;;;4.70;2.20;;;-10.90;99.90;;;;;;5136351;27;20484;-72
2022/06/15 02:31:02;;;;;;;3.97;2.97;;;-10.60;99.90;;;;;;5136094;27;20476;-70
2022/06/15 02:33:38;;;;;;;4.60;2.50;;;-11.20;99.90;;;;;;5136174;27;20161;-66
2022/06/15 02:36:05;;;;;;;2.90;2.03;;;-12.60;99.90;;;;;;5137465;27;20224;-72
2022/06/15 02:38:31;;;;;;;6.00;2.63;;;-14.90;99.90;;;;;;5139510;27;20192;-72
2022/06/15 02:40:58;;;;;;;4.50;2.77;;;-13.60;99.90;;;;;;5139935;27;20173;-71
2022/06/15 02:43:28;;;;;;;2.73;2.53;;;-12.40;99.90;;;;;;5139642;27;20248;-67
2022/06/15 02:45:57;;;;;;;3.63;2.33;;;-11.20;99.90;;;;;;5139869;27;20210;-73
2022/06/15 02:48:23;;;;;;;6.60;2.57;;;-13.50;99.90;;;;;;5139715;27;20177;-67
2022/06/15 02:51:14;;;;;;;3.47;2.50;;;-13.80;99.90;;;;;;5139716;27;20173;-68
2022/06/15 02:53:41;;;;;;;3.30;2.23;;;-13.90;99.90;;;;;;5139464;27;20172;-68
2022/06/15 02:56:11;;;;;;;2.57;2.10;;;-14.10;99.90;;;;;;5139562;27;20317;-68
2022/06/15 02:58:40;;;;;;;4.07;2.53;;;-12.40;99.90;;;;;;5139374;27;20272;-70
2022/06/15 03:01:06;;;;;;;4.03;2.50;;;-12.00;99.90;;;;;;5139564;27;20169;-68
2022/06/15 03:03:33;;;;;;;6.47;3.50;;;-13.00;99.90;;;;;;5139340;27;20165;-68
2022/06/15 03:05:59;;;;;;;2.73;2.57;;;-12.10;99.90;;;;;;5139036;27;20173;-69
2022/06/15 03:08:25;;;;;;;3.27;2.53;;;-14.50;99.90;;;;;;5139340;27;20208;-70
2022/06/15 03:10:52;;;;;;;2.87;2.67;;;-13.40;99.90;;;;;;5139256;27;20176;-70
2022/06/15 03:13:19;;;;;;;6.23;3.17;;;-12.30;99.90;;;;;;5139208;27;20173;-68
2022/06/15 03:15:45;;;;;;;7.67;3.33;;;-11.90;99.90;;;;;;5139114;27;20211;-68
2022/06/15 03:18:11;;;;;;;3.73;3.07;;;-12.70;99.90;;;;;;5139169;27;20193;-70
2022/06/15 03:20:37;;;;;;;7.23;3.10;;;-12.20;99.90;;;;;;5138965;27;20164;-66
2022/06/15 03:23:06;;;;;;;6.13;2.77;;;-14.20;99.90;;;;;;5137907;27;20260;-69
2022/06/15 03:25:33;;;;;;;4.33;3.20;;;-15.10;99.90;;;;;;5138938;27;20240;-65
2022/06/15 03:27:59;;;;;;;3.83;2.33;;;-13.40;99.90;;;;;;5138871;27;20185;-65
2022/06/15 03:30:24;;;;;;;5.97;2.90;;;-14.90;99.90;;;;;;5138949;27;20194;-65
2022/06/15 03:32:50;;;;;;;3.77;2.87;;;-15.80;99.90;;;;;;5138838;27;20212;-73
2022/06/15 03:35:16;;;;;;;3.73;2.80;;;-14.20;99.90;;;;;;5137364;27;20253;-73
2022/06/15 03:37:42;;;;;;;6.20;3.00;;;-13.40;99.90;;;;;;5138494;27;20213;-65
2022/06/15 03:40:13;;;;;;;3.30;2.43;;;-13.50;99.90;;;;;;5138575;27;20193;-66
2022/06/15 03:42:41;;;;;;;2.87;2.67;;;-14.60;99.90;;;;;;5137482;27;20165;-69
2022/06/15 03:45:10;;;;;;;3.23;2.60;;;-13.10;99.90;;;;;;5137631;27;20166;-68
2022/06/15 03:47:35;;;;;;;4.83;2.63;;;-12.60;99.90;;;;;;5138388;27;20173;-66
2022/06/15 03:50:01;;;;;;;3.83;3.23;;;-13.40;99.90;;;;;;5138279;27;20169;-65
2022/06/15 03:52:27;;;;;;;5.50;2.60;;;-11.40;99.90;;;;;;5138439;27;20228;-67
2022/06/15 03:54:54;;;;;;;2.87;2.57;;;-11.60;99.90;;;;;;5137288;27;20204;-68
2022/06/15 03:57:21;;;;;;;4.17;2.60;;;-11.00;99.90;;;;;;5138353;27;20276;-71
2022/06/15 03:59:47;;;;;;;2.90;2.73;;;-12.20;99.90;;;;;;5136982;27;20169;-66
2022/06/15 04:02:13;;;;;;;2.93;2.60;;;-12.60;99.90;;;;;;5137205;27;20572;-66
2022/06/15 04:04:39;;;;;;;5.13;3.07;;;-13.80;99.90;;;;;;5137722;27;20209;-66
2022/06/15 04:08:34;;;;;;;5.33;2.83;;;-11.30;99.90;;;;;;5138313;27;20231;-65
2022/06/15 04:09:52;;;;;;;3.77;2.43;;;-12.20;99.90;;;;;;5138010;27;20263;-69
2022/06/15 04:12:18;;;;;;;6.80;2.77;;;-14.30;99.90;;;;;;5138103;27;20176;-66
2022/06/15 04:14:44;;;;;;;3.50;2.90;;;-12.30;99.90;;;;;;5137805;27;20165;-67
2022/06/15 04:17:11;;;;;;;4.03;3.50;;;-12.30;99.90;;;;;;5136874;27;20197;-65
2022/06/15 04:19:37;;;;;;;2.87;2.53;;;-12.40;99.90;;;;;;5137489;27;20203;-65
2022/06/15 04:22:03;;;;;;;5.40;3.20;;;-12.00;99.90;;;;;;5137959;27;20236;-65
2022/06/15 04:24:30;;;;;;;3.73;3.30;;;-11.10;99.90;;;;;;5137713;27;20177;-67
2022/06/15 04:26:57;;;;;;;5.57;3.80;;;-10.60;99.90;;;;;;5137888;27;20244;-65
2022/06/15 04:29:24;;;;;;;6.13;3.87;;;-9.90;99.90;;;;;;5137575;27;20204;-67
2022/06/15 04:31:50;;;;;;;3.77;2.90;;;-10.40;99.90;;;;;;5137648;27;20172;-65
2022/06/15 04:34:17;;;;;;;7.07;3.83;;;-11.10;99.90;;;;;;5137231;27;20569;-69
2022/06/15 04:36:44;;;;;;;8.67;3.00;;;-11.80;99.90;;;;;;5137818;27;20289;-68
2022/06/15 04:39:12;;;;;;;3.60;3.30;;;-11.90;99.90;;;;;;5137417;27;20531;-66
2022/06/15 04:41:39;;;;;;;4.20;3.30;;;-11.20;99.90;;;;;;5119546;27;20561;-66
2022/06/15 04:44:06;;;;;;;6.67;3.97;;;-10.20;99.90;;;;;;5138280;27;20256;-66
2022/06/15 04:46:33;;;;;;;5.97;3.13;;;-10.50;99.90;;;;;;5137094;27;20185;-65
2022/06/15 04:49:00;;;;;;;5.37;3.63;;;-9.60;99.90;;;;;;5136742;27;20165;-65
2022/06/15 04:51:27;;;;;;;5.63;2.77;;;-8.20;99.90;;;;;;5137167;27;20173;-68
2022/06/15 04:53:54;;;;;;;5.70;3.43;;;-8.30;99.90;;;;;;5137282;27;20169;-65
2022/06/15 04:56:21;;;;;;;8.60;4.03;;;-7.80;99.90;;;;;;5137130;27;20214;-65
2022/06/15 04:58:48;;;;;;;4.40;4.00;;;-8.20;99.90;;;;;;5136179;27;20242;-66
2022/06/15 05:01:14;;;;;;;9.37;4.97;;;-8.20;99.90;;;;;;5133552;27;20173;-66
2022/06/15 05:03:40;;;;;;;4.70;3.73;;;-8.90;99.90;;;;;;5135251;27;20169;-66
2022/06/15 05:06:28;;;;;;;9.93;4.83;;;-10.20;99.90;;;;;;5136316;27;20204;-65
2022/06/15 05:08:54;;;;;;;4.97;4.10;;;-10.40;99.90;;;;;;5143630;27;20271;-65
2022/06/15 05:11:20;;;;;;;9.33;4.43;;;-8.50;99.90;;;;;;5142227;27;20213;-64
2022/06/15 05:13:46;;;;;;;5.40;4.23;;;-10.00;99.90;;;;;;5137004;27;20210;-65
2022/06/15 05:16:11;;;;;;;9.57;4.57;;;-8.70;99.90;;;;;;5136415;27;20193;-65
2022/06/15 05:18:37;;;;;;;7.53;4.60;;;-10.20;99.90;;;;;;5136969;27;20192;-65
2022/06/15 05:21:03;;;;;;;15.97;5.67;;;-9.40;99.90;;;;;;5136800;27;20239;-65
2022/06/15 05:23:29;;;;;;;8.43;5.27;;;-9.90;99.90;;;;;;5136821;27;20596;-65
2022/06/15 05:25:58;;;;;;;8.70;5.07;;;-9.00;99.90;;;;;;5136832;27;20214;-67
2022/06/15 05:28:24;;;;;;;8.87;4.90;;;-10.20;99.90;;;;;;5136813;27;20214;-65
2022/06/15 05:30:50;;;;;;;8.80;5.07;;;-11.20;99.90;;;;;;5136477;27;20205;-66
2022/06/15 05:33:16;;;;;;;11.60;5.30;;;-11.80;99.90;;;;;;5136707;27;20173;-65
2022/06/15 05:35:42;;;;;;;5.77;5.00;;;-12.30;99.90;;;;;;5136467;27;20177;-64
2022/06/15 05:38:08;;;;;;;8.27;5.23;;;-12.10;99.90;;;;;;5136661;27;20484;-69
2022/06/15 05:40:34;;;;;;;7.70;4.87;;;-12.50;99.90;;;;;;5136671;27;20198;-65
2022/06/15 05:43:00;;;;;;;11.00;5.83;;;-13.10;99.90;;;;;;5136549;27;20173;-68
2022/06/15 05:45:26;;;;;;;8.90;6.00;;;-15.60;99.90;;;;;;5136417;27;20170;-69
2022/06/15 05:47:52;;;;;;;7.43;5.80;;;-14.00;99.90;;;;;;5135695;27;20169;-68
2022/06/15 05:50:18;;;;;;;10.37;6.93;;;-13.50;99.90;;;;;;5135556;27;20176;-69
2022/06/15 05:52:44;;;;;;;8.70;5.90;;;-13.20;99.90;;;;;;5136567;27;20166;-69
2022/06/15 05:55:10;;;;;;;6.50;5.90;;;-14.30;99.90;;;;;;5135676;27;20642;-72
2022/06/15 05:57:36;;;;;;;12.73;6.00;;;-11.80;99.90;;;;;;5136352;27;20213;-68
2022/06/15 06:00:04;;;;;;;9.07;5.63;;;-15.30;99.90;;;;;;5136310;27;20166;-67
2022/06/15 06:02:30;;;;;;;9.50;5.53;;;-13.20;99.90;;;;;;5136502;27;20166;-68
2022/06/15 06:04:56;;;;;;;8.73;5.87;;;-14.70;99.90;;;;;;5136346;27;20173;-68
2022/06/15 06:07:22;;;;;;;9.90;5.03;;;-13.00;99.90;;;;;;5136147;27;20189;-68
2022/06/15 06:09:48;;;;;;;11.83;6.03;;;-13.10;99.90;;;;;;5136508;27;20169;-68
2022/06/15 06:12:14;;;;;;;7.80;6.13;;;-17.00;99.90;;;;;;5139430;27;20193;-69
2022/06/15 06:14:42;;;;;;;8.87;6.10;;;-18.70;99.90;;;;;;5140249;27;20172;-68
2022/06/15 06:17:09;;;;;;;8.50;6.33;;;-20.00;99.90;;;;;;5140135;27;20216;-66
2022/06/15 06:19:35;;;;;;;18.13;6.93;;;-17.30;99.90;;;;;;5140266;27;20174;-71
2022/06/15 06:22:01;;;;;;;10.73;5.80;;;-18.90;99.90;;;;;;5139066;27;20171;-72
2022/06/15 06:24:27;;;;;;;9.53;5.77;;;-23.10;99.90;;;;;;5140251;27;20245;-71
2022/06/15 06:27:03;;;;;;;11.10;6.13;;;-16.30;99.90;;;;;;5140031;27;20277;-72
2022/06/15 06:29:30;;;;;;;12.37;6.47;;;-14.50;99.90;;;;;;5139873;27;20467;-71
2022/06/15 06:32:00;;;;;;;10.30;6.63;;;-14.30;99.90;;;;;;5139815;27;20258;-69
2022/06/15 06:34:26;;;;;;;6.83;6.07;;;-18.10;99.90;;;;;;5139916;27;20240;-70
2022/06/15 06:36:52;;;;;;;8.97;5.77;;;-19.60;99.90;;;;;;5139691;27;20250;-73
2022/06/15 06:39:21;;;;;;;10.47;5.00;;;-13.50;99.90;;;;;;5139910;27;20161;-71
2022/06/15 06:41:47;;;;;;;8.97;5.43;;;-16.10;99.90;;;;;;5139683;27;20162;-68
2022/06/15 06:44:13;;;;;;;11.10;6.13;;;-17.90;99.90;;;;;;5138447;27;20169;-69
2022/06/15 06:46:44;;;;;;;10.53;6.83;;;-14.20;99.90;;;;;;5138654;27;20173;-72
2022/06/15 06:49:10;;;;;;;6.00;5.37;;;-13.90;99.90;;;;;;5138685;27;20211;-70
2022/06/15 06:51:38;;;;;;;11.33;5.20;;;-15.20;99.90;;;;;;5139547;27;20174;-69
2022/06/15 06:54:06;;;;;;;10.50;6.17;;;-18.40;99.90;;;;;;5139579;27;20165;-73
2022/06/15 06:56:35;;;;;;;7.93;6.27;;;-20.20;99.90;;;;;;5139511;27;20258;-71
2022/06/15 06:59:03;;;;;;;8.07;5.13;;;-19.20;99.90;;;;;;5138133;27;20556;-72
2022/06/15 07:01:28;;;;;;;10.87;6.03;;;-19.00;99.90;;;;;;5139528;27;20174;-70
2022/06/15 07:03:54;;;;;;;8.10;5.70;;;-13.60;99.90;;;;;;5139229;27;20161;-70
2022/06/15 07:06:20;;;;;;;9.13;6.67;;;-20.10;99.90;;;;;;5139162;27;20184;-69
2022/06/15 07:08:46;;;;;;;5.73;5.13;;;-25.00;99.90;;;;;;5139302;27;20183;-70
2022/06/15 07:11:18;;;;;;;17.50;5.60;;;-26.60;99.90;;;;;;5139183;27;20168;-70
2022/06/15 07:13:45;;;;;;;12.87;6.27;;;-20.00;99.90;;;;;;5137827;27;20170;-71
2022/06/15 07:16:17;;;;;;;9.20;5.67;;;-19.70;99.90;;;;;;5139027;27;20185;-67
2022/06/15 07:18:44;;;;;;;10.27;6.47;;;-14.70;99.90;;;;;;5139015;27;20372;-68
2022/06/15 07:21:12;;;;;;;13.40;5.07;;;-24.10;99.90;;;;;;5138875;27;20153;-69
2022/06/15 07:23:44;;;;;;;12.87;8.13;;;-27.10;99.90;;;;;;5138867;27;20161;-69
2022/06/15 07:26:14;;;;;;;8.47;5.43;;;-19.80;99.90;;;;;;5139002;27;20170;-68
2022/06/15 07:28:40;;;;;;;6.87;5.17;;;-21.20;99.90;;;;;;5137533;27;20585;-68
2022/06/15 07:31:06;;;;;;;7.40;6.10;;;-18.50;99.90;;;;;;5139207;27;20560;-71
2022/06/15 07:33:37;;;;;;;8.83;5.43;;;-20.90;99.90;;;;;;5138865;27;20191;-69
2022/06/15 07:36:03;;;;;;;9.77;5.80;;;-24.40;99.90;;;;;;5138916;27;20204;-71
2022/06/15 07:38:29;;;;;;;8.03;5.27;;;-15.40;99.90;;;;;;5138695;27;20186;-66
2022/06/15 07:40:57;;;;;;;9.43;5.67;;;-13.30;99.90;;;;;;5138788;27;20172;-66
2022/06/15 07:43:24;;;;;;;7.50;5.83;;;-20.50;99.90;;;;;;5138299;27;20169;-68
2022/06/15 07:45:50;;;;;;;11.40;5.43;;;-17.40;99.90;;;;;;5138583;27;20184;-67
2022/06/15 07:51:00;;;;;;;9.77;5.83;;;-23.40;99.90;;;;;;5138760;27;20165;-66
2022/06/15 07:53:26;;;;;;;7.63;5.43;;;-15.40;99.90;;;;;;5137354;27;20166;-69
2022/06/15 07:55:54;;;;;;;16.10;5.20;;;-19.50;99.90;;;;;;5137151;27;20199;-67
2022/06/15 07:58:20;;;;;;;6.10;4.73;;;-19.60;99.90;;;;;;5138369;27;20173;-67
2022/06/15 08:00:49;;;;;;;9.60;5.27;;;-16.90;99.90;;;;;;5138450;27;20272;-66
2022/06/15 08:03:16;;;;;;;8.03;5.73;;;-21.80;98.80;;;;;;5138109;27;20162;-65
2022/06/15 08:05:47;;;;;;;8.77;5.50;;;-16.70;99.80;;;;;;5137186;27;20173;-66
2022/06/15 08:08:20;;;;;;;12.77;5.60;;;-15.10;99.90;;;;;;5138022;27;20200;-66
2022/06/15 08:10:46;;;;;;;9.33;5.20;;;-11.00;99.90;;;;;;5137839;27;20210;-66
2022/06/15 08:13:13;;;;;;;8.87;4.73;;;-15.90;99.40;;;;;;5136943;27;20170;-68
2022/06/15 08:15:41;;;;;;;9.90;4.60;;;-15.40;99.20;;;;;;5137972;27;20215;-67
2022/06/15 08:18:13;;;;;;;6.27;5.30;;;-15.00;99.50;;;;;;5137860;27;20191;-67
2022/06/15 08:20:55;;;;;;;6.57;4.90;;;-16.40;99.60;;;;;;5138119;27;20532;-67
2022/06/15 08:23:24;;;;;;;9.57;5.67;;;-12.90;98.90;;;;;;5137854;27;20157;-67
2022/06/15 08:25:53;;;;;;;10.90;4.70;;;-18.50;97.70;;;;;;5137565;27;20165;-66
2022/06/15 08:28:22;;;;;;;11.93;5.40;;;-12.30;98.90;;;;;;5137723;27;20162;-65
2022/06/15 08:30:48;;;;;;;7.40;5.10;;;-13.80;98.00;;;;;;5137462;27;20172;-67
2022/06/15 08:33:15;;;;;;;6.50;4.80;;;-10.80;98.60;;;;;;5136964;27;20496;-67
2022/06/15 08:35:42;;;;;;;13.43;5.27;;;-13.00;98.70;;;;;;5137677;27;20177;-69
2022/06/15 08:38:11;;;;;;;14.30;5.63;;;-11.60;98.80;;;;;;5136337;27;20185;-66
2022/06/15 08:40:43;;;;;;;4.97;4.37;;;-10.10;98.00;;;;;;5137306;27;20161;-68
2022/06/15 08:43:16;;;;;;;4.57;4.10;;;-12.20;98.00;;;;;;5137345;27;20219;-67
2022/06/15 08:45:47;;;;;;;10.17;5.63;;;-14.10;97.10;;;;;;5137405;27;20248;-67
2022/06/15 08:48:33;;;;;;;7.93;4.67;;;-18.20;95.10;;;;;;5137348;27;20596;-67
2022/06/15 08:51:09;;;;;;;7.80;5.30;;;-12.50;96.80;;;;;;5115462;27;20572;-68
2022/06/15 08:53:45;;;;;;;12.40;4.43;;;-15.20;95.80;;;;;;5137386;27;20189;-67
2022/06/15 08:56:29;;;;;;;7.40;5.10;;;-20.80;93.30;;;;;;5136940;27;20192;-70
2022/06/15 08:59:16;;;;;;;7.27;4.87;;;-15.90;93.90;;;;;;5137373;27;20236;-74
2022/06/15 09:02:21;;;;;;;8.57;4.53;;;-21.20;94.00;;;;;;5137189;27;20221;-69
2022/06/15 09:05:06;;;;;;;6.63;5.40;;;-19.60;94.00;;;;;;5137035;27;20272;-71
2022/06/15 09:08:02;;;;;;;7.63;4.73;;;-25.80;90.60;;;;;;5137036;27;20193;-66
2022/06/15 09:10:48;;;;;;;9.23;5.27;;;-16.60;92.10;;;;;;5136750;27;20161;-68
2022/06/15 09:13:43;;;;;;;9.10;4.70;;;-19.50;92.50;;;;;;5136963;27;20172;-67
2022/06/15 09:16:47;;;;;;;5.23;4.00;;;-19.30;92.20;;;;;;5136788;27;20189;-70
2022/06/15 09:19:31;;;;;;;9.50;4.27;;;-21.50;91.00;;;;;;5127407;27;20180;-68
2022/06/15 09:22:04;;;;;;;12.27;4.33;;;-15.60;91.60;;;;;;5136896;27;20165;-67
2022/06/15 09:24:48;;;;;;;7.63;4.03;;;-20.90;91.60;;;;;;5136685;27;20573;-67
2022/06/15 09:27:29;;;;;;;7.33;3.60;;;-15.80;92.40;;;;;;5136768;27;20248;-67
2022/06/15 09:30:19;;;;;;;5.50;3.30;;;21.60;99.90;;;;;;5136657;27;20169;-69
2022/06/15 09:32:58;;;;;;;5.67;3.33;;;21.80;99.90;;;;;;5130501;28;20191;-67
2022/06/15 09:35:33;;;;;;;7.53;4.23;;;21.70;99.90;;;;;;5136417;27;20181;-67
2022/06/15 09:38:02;;;;;;;7.57;4.23;;;21.70;99.90;;;;;;5135205;27;20201;-69
2022/06/15 09:40:49;;;;;;;6.20;3.43;;;21.40;99.50;;;;;;5136620;27;20553;-68
2022/06/15 09:43:29;;;;;;;7.63;3.60;;;22.30;98.50;;;;;;5136726;27;20165;-68
2022/06/15 09:45:59;;;;;;;4.07;3.60;;;22.40;99.80;;;;;;5139382;27;20161;-68
2022/06/15 09:48:38;;;;;;;6.87;3.30;;;22.50;99.90;;;;;;5140852;27;20173;-68
2022/06/15 09:51:28;;;;;;;5.47;3.47;;;22.40;99.60;;;;;;5140611;27;20169;-69
2022/06/15 09:54:11;;;;;;;8.07;5.23;;;22.40;99.70;;;;;;5139559;27;20173;-69
2022/06/15 09:56:37;;;;;;;7.43;4.03;;;22.40;99.90;;;;;;5140621;27;20186;-70
2022/06/15 09:59:14;;;;;;;6.07;3.73;;;22.30;98.40;;;;;;5140660;27;20488;-68
2022/06/15 10:01:45;;;;;;;10.63;4.50;;;22.10;98.80;;;;;;5140558;27;20560;-69
2022/06/15 10:04:32;;;;;;;9.80;4.10;;;-5.60;90.00;;;;;;5140597;27;20158;-69
2022/06/15 10:07:11;;;;;;;5.80;5.00;;;-8.90;91.00;;;;;;5138856;27;20284;-71
2022/06/15 10:09:41;;;;;;;6.73;3.97;;;-5.90;91.10;;;;;;5140511;27;20196;-72
2022/06/15 10:15:14;;;;;;;8.90;4.27;;;21.90;99.80;;;;;;5140634;27;20184;-68
2022/06/15 10:17:49;;;;;;;6.70;4.23;;;23.40;99.90;;;;;;5140124;27;20197;-71
2022/06/15 10:20:28;;;;;;;6.93;4.37;;;23.40;99.00;;;;;;5140179;27;20176;-68
2022/06/15 10:22:56;;;;;;;7.57;4.53;;;23.40;98.80;;;;;;5139779;27;20188;-69
2022/06/15 10:25:24;;;;;;;9.63;4.20;;;23.40;99.00;;;;;;5140154;27;20569;-70
2022/06/15 10:28:04;;;;;;;5.63;3.43;;;23.20;97.90;;;;;;5140027;27;20619;-72
2022/06/15 10:30:29;;;;;;;7.40;4.33;;;23.10;99.00;;;;;;5140040;27;20161;-69
2022/06/15 10:33:19;;;;;;;6.43;4.03;;;23.10;97.70;;;;;;5139980;27;20167;-69
2022/06/15 10:35:58;;;;;;;7.53;3.60;;;23.80;97.70;;;;;;5139641;27;20250;-68
2022/06/15 10:38:26;;;;;;;4.83;3.97;;;23.70;98.30;;;;;;5139792;27;20271;-67
2022/06/15 10:41:45;;;;;;;5.63;4.43;;;23.50;97.20;;;;;;5139824;27;20166;-67
2022/06/15 10:43:44;;;;;;;9.00;5.20;;;23.10;96.50;;;;;;5139626;27;20205;-68
2022/06/15 10:46:10;;;;;;;4.60;4.20;;;23.10;96.00;;;;;;5139783;27;20201;-68
2022/06/15 10:48:47;;;;;;;7.67;3.87;;;23.00;96.00;;;;;;5139754;27;20261;-73
2022/06/15 10:51:28;;;;;;;5.30;3.70;;;22.90;97.00;;;;;;5139279;27;20169;-73
2022/06/15 10:54:18;;;;;;;6.23;4.30;;;-1.40;89.20;;;;;;5139596;27;20460;-73
2022/06/15 11:02:39;;;;;;;7.67;4.20;;;-1.80;87.60;;;;;;5139607;27;20644;-73
2022/06/15 11:05:12;;;;;;;6.20;5.60;;;-4.80;83.50;;;;;;5139140;27;20184;-68
2022/06/15 11:07:47;;;;;;;6.50;3.70;;;-3.40;82.50;;;;;;5139206;27;20672;-72
2022/06/15 11:10:21;;;;;;;12.03;4.53;;;-5.20;82.40;;;;;;5139199;27;20195;-72
2022/06/15 11:13:13;;;;;;;5.87;3.23;;;-3.00;84.30;;;;;;5139191;27;20166;-73
2022/06/15 11:18:32;;;;;;;6.23;3.80;;;-2.50;80.60;;;;;;5138823;27;20211;-71
2022/06/15 11:21:40;;;;;;;5.70;4.30;;;25.80;96.40;;;;;;5137775;27;20162;-71
2022/06/15 11:24:17;;;;;;;14.70;4.30;;;25.50;96.40;;;;;;5095907;28;20174;-74
2022/06/15 11:27:17;;;;;;;10.20;4.20;;;26.60;95.00;;;;;;5096113;28;20171;-74
2022/06/15 11:29:42;;;;;;;5.67;4.07;;;26.70;94.20;;;;;;5104538;27;20181;-68
2022/06/15 11:32:29;;;;;;;6.20;4.20;;;26.60;94.40;;;;;;5138863;27;20638;-68
2022/06/15 11:35:13;;;;;;;8.33;3.70;;;26.70;93.90;;;;;;5138443;27;20261;-68
2022/06/15 11:37:45;;;;;;;3.90;3.37;;;26.10;92.70;;;;;;5138595;27;20235;-68
2022/06/15 11:40:40;;;;;;;6.87;3.60;;;26.30;92.20;;;;;;5138788;27;20153;-68
2022/06/15 11:43:31;;;;;;;7.57;3.20;;;23.90;91.00;;;;;;5137561;27;20169;-68
2022/06/15 11:46:26;;;;;;;5.07;3.03;;;24.30;90.50;;;;;;5138779;27;20434;-67
2022/06/15 11:49:13;;;;;;;5.23;2.87;;;26.90;91.70;;;;;;5138382;27;20158;-68
2022/06/15 11:51:42;;;;;;;3.10;2.83;;;-17.40;62.30;;;;;;5138546;27;20224;-67
2022/06/15 11:54:22;;;;;;;4.60;3.07;;;-16.50;63.20;;;;;;5138453;27;20219;-67
2022/06/15 11:57:16;;;;;;;4.87;3.37;;;-19.00;58.10;;;;;;5138322;27;20228;-67
2022/06/15 12:00:13;;;;;;;7.03;3.28;;;-20.00;51.70;;;;;;5138329;27;20684;-67
2022/06/15 12:03:17;;;;;;;2.85;2.65;;;-16.30;54.10;;;;;;5135855;27;20265;-67
2022/06/15 12:06:08;;;;;;;9.57;3.15;;;-28.60;48.50;;;;;;5095287;28;20231;-70
2022/06/15 12:08:56;;;;;;;3.28;2.25;;;-20.80;49.00;;;;;;5107310;27;20274;-69
2022/06/15 12:14:21;;;;;;;8.88;3.10;;;-36.10;41.90;;;;;;5138114;27;20172;-67
2022/06/15 12:17:22;;;;;;;7.88;3.92;;;-17.90;51.00;;;;;;5136660;27;20206;-68
2022/06/15 12:20:11;;;;;;;5.95;3.67;;;-20.00;46.80;;;;;;5101753;27;20204;-68
2022/06/15 12:22:49;;;;;;;10.32;3.58;;;-20.10;44.50;;;;;;5137806;27;20230;-69
2022/06/15 12:25:45;;;;;;;7.95;4.35;;;-15.90;49.30;;;;;;5137688;27;20169;-69
2022/06/15 12:28:38;;;;;;;5.75;3.60;;;-18.20;43.20;;;;;;5137810;27;20443;-68
2022/06/15 12:31:56;;;;;;;3.47;2.60;;;-22.10;40.50;;;;;;5137637;27;20470;-67
2022/06/15 12:34:58;;;;;;;4.93;2.67;;;-18.10;39.60;;;;;;5113661;27;20181;-67
2022/06/15 12:37:36;;;;;;;3.25;2.63;;;-16.80;47.40;;;;;;5114203;27;20627;-68
2022/06/15 12:40:26;;;;;;;5.72;2.53;;;-10.40;45.10;;;;;;5137422;27;20577;-67
2022/06/15 12:43:09;;;;;;;4.93;2.47;;;-5.40;49.40;;;;;;5136510;27;20176;-68
2022/06/15 12:45:38;;;;;;;5.07;2.55;;;1.30;50.80;;;;;;5137361;27;20177;-68
2022/06/15 12:48:31;;;;;;;3.55;2.35;;;0.60;49.50;;;;;;5137066;27;20176;-67
2022/06/15 12:51:19;;;;;;;2.47;2.08;;;5.30;50.40;;;;;;5137242;27;20282;-68
2022/06/15 12:53:52;;;;;;;6.47;2.67;;;1.90;47.30;;;;;;5137403;27;20248;-67
2022/06/15 12:56:29;;;;;;;5.38;2.97;;;2.30;49.00;;;;;;5137028;27;20208;-69
2022/06/15 12:58:58;;;;;;;2.80;2.60;;;3.90;47.70;;;;;;5137344;27;20165;-69
2022/06/15 13:01:39;;;;;;;6.53;3.00;;;6.10;48.60;;;;;;5136759;27;20174;-68
2022/06/15 13:04:37;;;;;;;5.70;2.80;;;4.50;47.00;;;;;;5137294;27;20172;-68
2022/06/15 13:07:29;;;;;;;3.95;2.70;;;5.20;47.60;;;;;;5134048;27;20620;-67
2022/06/15 13:10:07;;;;;;;3.80;3.00;;;5.40;46.30;;;;;;5137023;27;20177;-68
2022/06/15 13:12:41;;;;;;;3.90;2.42;;;1.40;42.30;;;;;;5137098;27;20244;-68
2022/06/15 13:15:16;;;;;;;2.88;2.60;;;1.90;43.70;;;;;;5135657;27;20467;-68
2022/06/15 13:18:07;;;;;;;4.80;3.60;;;2.80;44.50;;;;;;5136879;27;20200;-68
2022/06/15 13:20:43;;;;;;;12.18;3.20;;;7.70;42.30;;;;;;5136325;27;20168;-67
2022/06/15 13:23:22;;;;;;;2.88;2.67;;;10.30;47.40;;;;;;5135906;27;20169;-71
2022/06/15 13:26:10;;;;;;;3.40;2.63;;;10.50;50.70;;;;;;5135726;27;20187;-70
2022/06/15 13:28:40;;;;;;;4.35;3.00;;;8.30;45.40;;;;;;5136895;27;20164;-69